Historique des mesures à Cassis (13260), France
Quotidien Résumé Mai 10, 2018 Unités:  Métrique    US   Métrique/US
« Précédent (Jour)
Suivant (Jour) »
Quotidien Hebdomadaire Mensuel Annuel Période au choix
  Maximum: Minimum: Moyenne:
Température: TemperatureC °C 15.9 °C 18.5 °C
Point de rosée: DewpointC °C 8.6 °C 12.5 °C
Humidité: Humidity % 52 % 66 %
Vitesse du vent: 0 km/h 0 km/h 12.9 km/h
Rafales: 0 km/h - -
Vent:- - West
Pression: PressurehPa hPa 1003.6 hPa -
Précipitations: 0.0 mm    
Historical Graphs
 
 
Mesures pour : Mai 10, 2018
Heure Temperature Point de rosée Pression Vent Vitesse du vent Rafales Humidité Pluie (par heure) Conditions
TemperatureC °C DewpointC °C PressurehPa hPa Calm     Humidity % HourlyPrecipMM mm SoftwareType W/m2
00:10 17.5 °C 14.4 °C 1003.9 hPa NW 3.4 km/h 3.4 km/h 82 % 0.0 mm open2300-1.11 W/m2
01:10 17.1 °C 14.2 °C 1003.9 hPa Calm     83 % 0.0 mm open2300-1.11 W/m2
02:10 16.8 °C 13.9 °C 1003.6 hPa Calm     83 % 0.0 mm open2300-1.11 W/m2
03:10 16.4 °C 13.7 °C 1003.9 hPa Calm   5.1 km/h 84 % 0.0 mm open2300-1.11 W/m2
04:10 16.4 °C 13.9 °C 1003.9 hPa Calm   3.4 km/h 85 % 0.0 mm open2300-1.11 W/m2
05:10 16.4 °C 13.9 °C 1003.9 hPa Calm     85 % 0.0 mm open2300-1.11 W/m2
06:10 16.1 °C 13.6 °C 1004.6 hPa Calm     85 % 0.0 mm open2300-1.11 W/m2
07:10 15.9 °C 13.2 °C 1005.3 hPa NNW 2.9 km/h 2.9 km/h 84 % 0.0 mm open2300-1.11 W/m2
08:10 18.1 °C 14.8 °C 1005.6 hPa Calm   5.6 km/h 81 % 0.0 mm open2300-1.11 W/m2
09:10 18.3 °C 14.4 °C 1006.3 hPa ENE 5.6 km/h 5.6 km/h 78 % 0.0 mm open2300-1.11 W/m2
10:12 19.1 °C 13.9 °C 1007.0 hPa WNW 33.2 km/h 33.2 km/h 72 % 0.0 mm open2300-1.11 W/m2
11:11 21.5 °C 14.9 °C 1007.0 hPa North 17.9 km/h 33.2 km/h 66 % 0.0 mm open2300-1.11 W/m2
12:11 21.6 °C 14.5 °C 1007.0 hPa WNW 37 km/h 42.2 km/h 64 % 0.0 mm open2300-1.11 W/m2
13:11 21.1 °C 13.6 °C 1007.3 hPa NW 20.3 km/h 43.5 km/h 62 % 0.0 mm open2300-1.11 W/m2
14:11 22.8 °C 15.1 °C 1007.3 hPa NW 6.9 km/h 16.9 km/h 62 % 0.0 mm open2300-1.11 W/m2
15:11 22.0 °C 14.2 °C 1007.7 hPa NNW 13.2 km/h 23.8 km/h 61 % 0.0 mm open2300-1.11 W/m2
16:11 22.7 °C 14.0 °C 1007.3 hPa West 31.9 km/h 31.9 km/h 58 % 0.0 mm open2300-1.11 W/m2
17:11 23.2 °C 13.3 °C 1007.7 hPa NW 57.3 km/h 57.3 km/h 54 % 0.0 mm open2300-1.11 W/m2
18:11 22.3 °C 11.9 °C 1007.3 hPa NNW 20.9 km/h 37.5 km/h 52 % 0.0 mm open2300-1.11 W/m2
19:11 21.2 °C 10.9 °C 1008.0 hPa NW 19.6 km/h 23 km/h 52 % 0.0 mm open2300-1.11 W/m2
20:11 20.3 °C 10.1 °C 1009.0 hPa North 12.2 km/h 36.5 km/h 52 % 0.0 mm open2300-1.11 W/m2
21:10 18.9 °C 9.7 °C 1009.4 hPa NNW 19.2 km/h 26.7 km/h 55 % 0.0 mm open2300-1.11 W/m2
22:10 18.1 °C 8.8 °C 1010.0 hPa NNW 17.9 km/h 19.2 km/h 55 % 0.0 mm open2300-1.11 W/m2
23:10 17.5 °C 8.6 °C 1010.4 hPa NNW 2.3 km/h 14.5 km/h 56 % 0.0 mm open2300-1.11 W/m2
Observations météo à CASSIS
WU-History script by Weather Underground - 1 mb